sensor_id;sensor_type;location;lat;lon;timestamp;P1;durP1;ratioP1;P2;durP2;ratioP2
49942;SDS011;36011;53.362;58.948;2023-02-28T00:01:27;0.50;;;0.50;;
49942;SDS011;36011;53.362;58.948;2023-02-28T00:04:32;0.85;;;0.85;;
49942;SDS011;36011;53.362;58.948;2023-02-28T00:07:36;0.40;;;0.40;;
49942;SDS011;36011;53.362;58.948;2023-02-28T00:10:43;0.50;;;0.50;;
49942;SDS011;36011;53.362;58.948;2023-02-28T00:13:49;0.38;;;0.38;;
49942;SDS011;36011;53.362;58.948;2023-02-28T00:16:52;0.60;;;0.60;;
49942;SDS011;36011;53.362;58.948;2023-02-28T00:19:58;0.68;;;0.68;;
49942;SDS011;36011;53.362;58.948;2023-02-28T00:23:07;2.17;;;1.00;;
49942;SDS011;36011;53.362;58.948;2023-02-28T00:26:14;1.00;;;0.57;;
49942;SDS011;36011;53.362;58.948;2023-02-28T00:29:17;0.50;;;0.50;;
49942;SDS011;36011;53.362;58.948;2023-02-28T00:32:21;0.85;;;0.70;;
49942;SDS011;36011;53.362;58.948;2023-02-28T00:35:30;0.80;;;0.70;;
49942;SDS011;36011;53.362;58.948;2023-02-28T00:38:35;0.50;;;0.50;;
49942;SDS011;36011;53.362;58.948;2023-02-28T00:41:37;0.50;;;0.50;;
49942;SDS011;36011;53.362;58.948;2023-02-28T00:44:47;0.68;;;0.68;;
49942;SDS011;36011;53.362;58.948;2023-02-28T00:47:49;0.50;;;0.50;;
49942;SDS011;36011;53.362;58.948;2023-02-28T00:53:54;0.90;;;0.90;;
49942;SDS011;36011;53.362;58.948;2023-02-28T00:56:59;0.70;;;0.70;;
49942;SDS011;36011;53.362;58.948;2023-02-28T01:00:03;0.80;;;0.70;;
49942;SDS011;36011;53.362;58.948;2023-02-28T01:03:08;1.55;;;0.68;;
49942;SDS011;36011;53.362;58.948;2023-02-28T01:06:12;0.63;;;0.60;;
49942;SDS011;36011;53.362;58.948;2023-02-28T01:09:14;0.40;;;0.40;;
49942;SDS011;36011;53.362;58.948;2023-02-28T01:12:16;0.90;;;0.80;;
49942;SDS011;36011;53.362;58.948;2023-02-28T01:15:20;0.35;;;0.35;;
49942;SDS011;36011;53.362;58.948;2023-02-28T01:18:24;0.65;;;0.60;;
49942;SDS011;36011;53.362;58.948;2023-02-28T01:24:30;0.70;;;0.70;;
49942;SDS011;36011;53.362;58.948;2023-02-28T01:27:36;0.70;;;0.70;;
49942;SDS011;36011;53.362;58.948;2023-02-28T01:30:40;0.88;;;0.70;;
49942;SDS011;36011;53.362;58.948;2023-02-28T01:33:48;0.80;;;0.80;;
49942;SDS011;36011;53.362;58.948;2023-02-28T01:36:52;0.80;;;0.80;;
49942;SDS011;36011;53.362;58.948;2023-02-28T01:39:59;1.33;;;0.75;;
49942;SDS011;36011;53.362;58.948;2023-02-28T01:43:04;0.82;;;0.70;;
49942;SDS011;36011;53.362;58.948;2023-02-28T01:46:22;1.95;;;0.93;;
49942;SDS011;36011;53.362;58.948;2023-02-28T01:49:24;0.85;;;0.50;;
49942;SDS011;36011;53.362;58.948;2023-02-28T01:52:28;1.58;;;0.70;;
49942;SDS011;36011;53.362;58.948;2023-02-28T01:55:30;1.25;;;0.90;;
49942;SDS011;36011;53.362;58.948;2023-02-28T01:58:34;0.60;;;0.60;;
49942;SDS011;36011;53.362;58.948;2023-02-28T02:01:37;1.08;;;0.70;;
49942;SDS011;36011;53.362;58.948;2023-02-28T02:04:40;0.57;;;0.57;;
49942;SDS011;36011;53.362;58.948;2023-02-28T02:07:57;0.75;;;0.75;;
49942;SDS011;36011;53.362;58.948;2023-02-28T02:11:07;0.70;;;0.70;;
49942;SDS011;36011;53.362;58.948;2023-02-28T02:18:02;0.70;;;0.70;;
49942;SDS011;36011;53.362;58.948;2023-02-28T02:34:38;0.70;;;0.60;;
49942;SDS011;36011;53.362;58.948;2023-02-28T02:37:50;0.70;;;0.70;;
49942;SDS011;36011;53.362;58.948;2023-02-28T02:41:04;0.55;;;0.55;;
49942;SDS011;36011;53.362;58.948;2023-02-28T02:47:42;0.82;;;0.80;;
49942;SDS011;36011;53.362;58.948;2023-02-28T02:50:52;0.88;;;0.65;;
49942;SDS011;36011;53.362;58.948;2023-02-28T02:54:03;0.70;;;0.70;;
49942;SDS011;36011;53.362;58.948;2023-02-28T02:57:24;0.75;;;0.63;;
49942;SDS011;36011;53.362;58.948;2023-02-28T03:00:45;0.63;;;0.63;;
49942;SDS011;36011;53.362;58.948;2023-02-28T03:03:57;0.55;;;0.55;;
49942;SDS011;36011;53.362;58.948;2023-02-28T03:07:08;0.80;;;0.80;;
49942;SDS011;36011;53.362;58.948;2023-02-28T03:21:17;2.10;;;1.40;;
49942;SDS011;36011;53.362;58.948;2023-02-28T03:27:58;0.63;;;0.63;;
49942;SDS011;36011;53.362;58.948;2023-02-28T03:31:08;0.68;;;0.50;;
49942;SDS011;36011;53.362;58.948;2023-02-28T03:34:33;0.50;;;0.30;;
49942;SDS011;36011;53.362;58.948;2023-02-28T03:37:44;0.50;;;0.50;;
49942;SDS011;36011;53.362;58.948;2023-02-28T03:40:51;0.70;;;0.50;;
49942;SDS011;36011;53.362;58.948;2023-02-28T03:44:04;0.63;;;0.60;;
49942;SDS011;36011;53.362;58.948;2023-02-28T03:47:22;0.88;;;0.60;;
49942;SDS011;36011;53.362;58.948;2023-02-28T03:50:47;0.82;;;0.68;;
49942;SDS011;36011;53.362;58.948;2023-02-28T03:53:59;1.10;;;1.02;;
49942;SDS011;36011;53.362;58.948;2023-02-28T04:04:17;0.60;;;0.60;;
49942;SDS011;36011;53.362;58.948;2023-02-28T04:07:21;1.20;;;1.10;;
49942;SDS011;36011;53.362;58.948;2023-02-28T04:10:26;1.00;;;0.90;;
49942;SDS011;36011;53.362;58.948;2023-02-28T04:13:30;0.43;;;0.40;;
49942;SDS011;36011;53.362;58.948;2023-02-28T04:16:35;0.40;;;0.40;;
49942;SDS011;36011;53.362;58.948;2023-02-28T04:19:41;0.50;;;0.50;;
49942;SDS011;36011;53.362;58.948;2023-02-28T04:22:46;0.50;;;0.50;;
49942;SDS011;36011;53.362;58.948;2023-02-28T04:25:54;0.60;;;0.50;;
49942;SDS011;36011;53.362;58.948;2023-02-28T04:29:00;0.40;;;0.40;;
49942;SDS011;36011;53.362;58.948;2023-02-28T04:32:06;0.50;;;0.50;;
49942;SDS011;36011;53.362;58.948;2023-02-28T04:35:10;0.60;;;0.60;;
49942;SDS011;36011;53.362;58.948;2023-02-28T04:38:15;0.80;;;0.80;;
49942;SDS011;36011;53.362;58.948;2023-02-28T04:41:21;0.47;;;0.47;;
49942;SDS011;36011;53.362;58.948;2023-02-28T04:44:24;1.02;;;0.90;;
49942;SDS011;36011;53.362;58.948;2023-02-28T04:47:29;0.50;;;0.50;;
49942;SDS011;36011;53.362;58.948;2023-02-28T04:50:34;0.77;;;0.77;;
49942;SDS011;36011;53.362;58.948;2023-02-28T04:53:39;0.95;;;0.50;;
49942;SDS011;36011;53.362;58.948;2023-02-28T04:56:45;0.82;;;0.82;;
49942;SDS011;36011;53.362;58.948;2023-02-28T04:59:51;0.60;;;0.60;;
49942;SDS011;36011;53.362;58.948;2023-02-28T05:02:56;0.50;;;0.50;;
49942;SDS011;36011;53.362;58.948;2023-02-28T05:06:00;1.02;;;0.90;;
49942;SDS011;36011;53.362;58.948;2023-02-28T05:09:05;0.70;;;0.70;;
49942;SDS011;36011;53.362;58.948;2023-02-28T05:12:10;0.88;;;0.88;;
49942;SDS011;36011;53.362;58.948;2023-02-28T05:15:16;0.70;;;0.70;;
49942;SDS011;36011;53.362;58.948;2023-02-28T05:18:21;1.77;;;0.80;;
49942;SDS011;36011;53.362;58.948;2023-02-28T05:21:36;0.75;;;0.75;;
49942;SDS011;36011;53.362;58.948;2023-02-28T05:24:52;0.60;;;0.60;;
49942;SDS011;36011;53.362;58.948;2023-02-28T05:27:55;1.38;;;0.90;;
49942;SDS011;36011;53.362;58.948;2023-02-28T05:30:59;1.15;;;1.00;;
49942;SDS011;36011;53.362;58.948;2023-02-28T05:34:05;1.10;;;1.00;;
49942;SDS011;36011;53.362;58.948;2023-02-28T05:37:13;1.85;;;1.45;;
49942;SDS011;36011;53.362;58.948;2023-02-28T05:40:18;1.42;;;1.10;;
49942;SDS011;36011;53.362;58.948;2023-02-28T05:43:22;0.95;;;0.50;;
49942;SDS011;36011;53.362;58.948;2023-02-28T05:46:26;1.00;;;0.75;;
49942;SDS011;36011;53.362;58.948;2023-02-28T05:49:31;0.73;;;0.65;;
49942;SDS011;36011;53.362;58.948;2023-02-28T05:55:38;0.60;;;0.50;;
49942;SDS011;36011;53.362;58.948;2023-02-28T05:58:43;0.70;;;0.70;;
49942;SDS011;36011;53.362;58.948;2023-02-28T06:01:48;1.55;;;0.80;;
49942;SDS011;36011;53.362;58.948;2023-02-28T06:04:55;2.20;;;1.70;;
49942;SDS011;36011;53.362;58.948;2023-02-28T06:08:00;1.38;;;1.27;;
49942;SDS011;36011;53.362;58.948;2023-02-28T06:11:05;0.98;;;0.98;;
49942;SDS011;36011;53.362;58.948;2023-02-28T06:14:17;1.17;;;1.08;;
49942;SDS011;36011;53.362;58.948;2023-02-28T06:17:22;1.38;;;1.10;;
49942;SDS011;36011;53.362;58.948;2023-02-28T06:20:28;1.70;;;1.00;;
49942;SDS011;36011;53.362;58.948;2023-02-28T06:23:30;1.10;;;0.90;;
49942;SDS011;36011;53.362;58.948;2023-02-28T06:26:37;1.65;;;1.27;;
49942;SDS011;36011;53.362;58.948;2023-02-28T06:29:38;1.30;;;1.20;;
49942;SDS011;36011;53.362;58.948;2023-02-28T06:32:47;1.30;;;0.93;;
49942;SDS011;36011;53.362;58.948;2023-02-28T06:35:52;2.40;;;1.80;;
49942;SDS011;36011;53.362;58.948;2023-02-28T06:41:57;0.98;;;0.95;;
49942;SDS011;36011;53.362;58.948;2023-02-28T06:44:59;1.13;;;1.02;;
49942;SDS011;36011;53.362;58.948;2023-02-28T06:48:09;1.27;;;1.17;;
49942;SDS011;36011;53.362;58.948;2023-02-28T06:51:15;2.15;;;1.20;;
49942;SDS011;36011;53.362;58.948;2023-02-28T06:54:18;1.20;;;1.10;;
49942;SDS011;36011;53.362;58.948;2023-02-28T06:57:28;1.80;;;1.70;;
49942;SDS011;36011;53.362;58.948;2023-02-28T07:00:33;1.63;;;1.40;;
49942;SDS011;36011;53.362;58.948;2023-02-28T07:03:35;1.40;;;1.30;;
49942;SDS011;36011;53.362;58.948;2023-02-28T07:06:38;1.73;;;1.20;;
49942;SDS011;36011;53.362;58.948;2023-02-28T07:09:39;1.55;;;1.38;;
49942;SDS011;36011;53.362;58.948;2023-02-28T07:12:41;1.85;;;1.50;;
49942;SDS011;36011;53.362;58.948;2023-02-28T07:18:55;2.10;;;1.73;;
49942;SDS011;36011;53.362;58.948;2023-02-28T07:21:56;2.42;;;2.20;;
49942;SDS011;36011;53.362;58.948;2023-02-28T07:24:58;2.53;;;2.30;;
49942;SDS011;36011;53.362;58.948;2023-02-28T07:28:03;2.38;;;2.00;;
49942;SDS011;36011;53.362;58.948;2023-02-28T07:31:05;2.15;;;1.85;;
49942;SDS011;36011;53.362;58.948;2023-02-28T07:34:15;3.08;;;2.55;;
49942;SDS011;36011;53.362;58.948;2023-02-28T07:37:21;2.20;;;2.00;;
49942;SDS011;36011;53.362;58.948;2023-02-28T07:40:26;3.17;;;2.88;;
49942;SDS011;36011;53.362;58.948;2023-02-28T07:43:27;3.63;;;3.33;;
49942;SDS011;36011;53.362;58.948;2023-02-28T07:46:31;8.55;;;5.88;;
49942;SDS011;36011;53.362;58.948;2023-02-28T07:49:36;4.65;;;3.83;;
49942;SDS011;36011;53.362;58.948;2023-02-28T07:52:38;5.05;;;3.75;;
49942;SDS011;36011;53.362;58.948;2023-02-28T07:55:44;9.02;;;5.32;;
49942;SDS011;36011;53.362;58.948;2023-02-28T07:58:48;8.40;;;5.65;;
49942;SDS011;36011;53.362;58.948;2023-02-28T08:04:53;4.72;;;3.45;;
49942;SDS011;36011;53.362;58.948;2023-02-28T08:07:57;3.75;;;3.30;;
49942;SDS011;36011;53.362;58.948;2023-02-28T08:10:59;4.97;;;3.70;;
49942;SDS011;36011;53.362;58.948;2023-02-28T08:14:02;3.97;;;3.42;;
49942;SDS011;36011;53.362;58.948;2023-02-28T08:17:06;3.80;;;3.13;;
49942;SDS011;36011;53.362;58.948;2023-02-28T08:20:10;3.95;;;3.22;;
49942;SDS011;36011;53.362;58.948;2023-02-28T08:23:11;4.00;;;3.50;;
49942;SDS011;36011;53.362;58.948;2023-02-28T08:26:16;4.15;;;3.28;;
49942;SDS011;36011;53.362;58.948;2023-02-28T08:29:18;4.63;;;3.78;;
49942;SDS011;36011;53.362;58.948;2023-02-28T08:32:22;4.90;;;3.58;;
49942;SDS011;36011;53.362;58.948;2023-02-28T08:35:23;5.97;;;4.22;;
49942;SDS011;36011;53.362;58.948;2023-02-28T08:38:25;6.40;;;4.53;;
49942;SDS011;36011;53.362;58.948;2023-02-28T08:41:29;6.82;;;4.28;;
49942;SDS011;36011;53.362;58.948;2023-02-28T08:44:33;8.73;;;5.13;;
49942;SDS011;36011;53.362;58.948;2023-02-28T08:47:39;5.65;;;3.75;;
49942;SDS011;36011;53.362;58.948;2023-02-28T08:50:43;6.38;;;3.95;;
49942;SDS011;36011;53.362;58.948;2023-02-28T08:53:45;4.60;;;3.63;;
49942;SDS011;36011;53.362;58.948;2023-02-28T08:56:50;3.38;;;2.65;;
49942;SDS011;36011;53.362;58.948;2023-02-28T08:59:54;4.20;;;3.47;;
49942;SDS011;36011;53.362;58.948;2023-02-28T09:03:01;3.90;;;2.58;;
49942;SDS011;36011;53.362;58.948;2023-02-28T09:06:02;3.17;;;2.63;;
49942;SDS011;36011;53.362;58.948;2023-02-28T09:09:06;5.18;;;4.68;;
49942;SDS011;36011;53.362;58.948;2023-02-28T09:12:10;4.82;;;3.70;;
49942;SDS011;36011;53.362;58.948;2023-02-28T09:15:14;3.97;;;3.45;;
49942;SDS011;36011;53.362;58.948;2023-02-28T09:18:23;5.20;;;3.38;;
49942;SDS011;36011;53.362;58.948;2023-02-28T09:21:24;3.17;;;2.42;;
49942;SDS011;36011;53.362;58.948;2023-02-28T09:24:30;3.58;;;2.88;;
49942;SDS011;36011;53.362;58.948;2023-02-28T09:27:34;2.90;;;2.70;;
49942;SDS011;36011;53.362;58.948;2023-02-28T09:30:38;3.72;;;2.90;;
49942;SDS011;36011;53.362;58.948;2023-02-28T09:33:40;3.92;;;2.55;;
49942;SDS011;36011;53.362;58.948;2023-02-28T09:36:47;3.50;;;2.40;;
49942;SDS011;36011;53.362;58.948;2023-02-28T09:42:53;2.80;;;2.10;;
49942;SDS011;36011;53.362;58.948;2023-02-28T09:49:24;2.33;;;2.13;;
49942;SDS011;36011;53.362;58.948;2023-02-28T09:52:32;2.63;;;2.30;;
49942;SDS011;36011;53.362;58.948;2023-02-28T09:55:44;3.28;;;2.67;;
49942;SDS011;36011;53.362;58.948;2023-02-28T10:05:37;3.72;;;2.35;;
49942;SDS011;36011;53.362;58.948;2023-02-28T10:08:51;2.95;;;2.00;;
49942;SDS011;36011;53.362;58.948;2023-02-28T10:12:24;4.18;;;3.30;;
49942;SDS011;36011;53.362;58.948;2023-02-28T10:18:38;3.38;;;2.53;;
49942;SDS011;36011;53.362;58.948;2023-02-28T10:21:59;2.40;;;2.20;;
49942;SDS011;36011;53.362;58.948;2023-02-28T10:25:05;2.53;;;1.92;;
49942;SDS011;36011;53.362;58.948;2023-02-28T10:28:21;3.53;;;2.53;;
49942;SDS011;36011;53.362;58.948;2023-02-28T10:31:25;2.50;;;1.90;;
49942;SDS011;36011;53.362;58.948;2023-02-28T10:34:29;2.55;;;2.15;;
49942;SDS011;36011;53.362;58.948;2023-02-28T10:40:41;2.95;;;2.03;;
49942;SDS011;36011;53.362;58.948;2023-02-28T10:43:44;2.90;;;2.60;;
49942;SDS011;36011;53.362;58.948;2023-02-28T10:46:51;3.13;;;2.17;;
49942;SDS011;36011;53.362;58.948;2023-02-28T10:49:53;2.90;;;2.20;;
49942;SDS011;36011;53.362;58.948;2023-02-28T10:52:55;2.47;;;2.28;;
49942;SDS011;36011;53.362;58.948;2023-02-28T11:02:29;3.58;;;2.83;;
49942;SDS011;36011;53.362;58.948;2023-02-28T11:05:33;3.63;;;2.70;;
49942;SDS011;36011;53.362;58.948;2023-02-28T11:08:43;4.28;;;3.00;;
49942;SDS011;36011;53.362;58.948;2023-02-28T11:11:50;3.50;;;2.72;;
49942;SDS011;36011;53.362;58.948;2023-02-28T11:15:02;3.80;;;3.20;;
49942;SDS011;36011;53.362;58.948;2023-02-28T11:18:18;4.93;;;3.25;;
49942;SDS011;36011;53.362;58.948;2023-02-28T11:21:41;4.53;;;3.22;;
49942;SDS011;36011;53.362;58.948;2023-02-28T11:24:57;4.50;;;3.50;;
49942;SDS011;36011;53.362;58.948;2023-02-28T11:28:05;3.83;;;3.17;;
49942;SDS011;36011;53.362;58.948;2023-02-28T11:31:23;4.72;;;3.40;;
49942;SDS011;36011;53.362;58.948;2023-02-28T11:34:33;3.67;;;3.00;;
49942;SDS011;36011;53.362;58.948;2023-02-28T11:37:37;4.07;;;3.03;;
49942;SDS011;36011;53.362;58.948;2023-02-28T11:41:04;3.22;;;2.92;;
49942;SDS011;36011;53.362;58.948;2023-02-28T12:00:49;5.28;;;3.50;;
49942;SDS011;36011;53.362;58.948;2023-02-28T12:07:33;5.00;;;4.07;;
49942;SDS011;36011;53.362;58.948;2023-02-28T12:10:53;5.57;;;3.90;;
49942;SDS011;36011;53.362;58.948;2023-02-28T12:26:51;3.88;;;2.97;;
49942;SDS011;36011;53.362;58.948;2023-02-28T12:30:03;3.83;;;3.17;;
49942;SDS011;36011;53.362;58.948;2023-02-28T12:33:28;4.50;;;3.45;;
49942;SDS011;36011;53.362;58.948;2023-02-28T12:36:34;6.07;;;4.43;;
49942;SDS011;36011;53.362;58.948;2023-02-28T12:39:41;8.00;;;4.60;;
49942;SDS011;36011;53.362;58.948;2023-02-28T12:42:52;5.63;;;4.28;;
49942;SDS011;36011;53.362;58.948;2023-02-28T12:46:07;6.97;;;4.22;;
49942;SDS011;36011;53.362;58.948;2023-02-28T12:49:22;4.93;;;3.38;;
49942;SDS011;36011;53.362;58.948;2023-02-28T12:59:17;4.63;;;2.67;;
49942;SDS011;36011;53.362;58.948;2023-02-28T13:09:00;4.88;;;3.55;;
49942;SDS011;36011;53.362;58.948;2023-02-28T13:12:14;2.75;;;1.98;;
49942;SDS011;36011;53.362;58.948;2023-02-28T13:15:25;4.65;;;2.40;;
49942;SDS011;36011;53.362;58.948;2023-02-28T13:18:31;3.58;;;2.78;;
49942;SDS011;36011;53.362;58.948;2023-02-28T13:21:47;3.75;;;2.63;;
49942;SDS011;36011;53.362;58.948;2023-02-28T13:24:52;3.88;;;2.65;;
49942;SDS011;36011;53.362;58.948;2023-02-28T13:27:59;4.00;;;3.53;;
49942;SDS011;36011;53.362;58.948;2023-02-28T13:31:09;7.57;;;3.80;;
49942;SDS011;36011;53.362;58.948;2023-02-28T13:34:14;3.70;;;2.72;;
49942;SDS011;36011;53.362;58.948;2023-02-28T13:40:31;5.35;;;3.33;;
49942;SDS011;36011;53.362;58.948;2023-02-28T13:50:14;5.97;;;3.92;;
49942;SDS011;36011;53.362;58.948;2023-02-28T13:56:28;4.93;;;3.30;;
49942;SDS011;36011;53.362;58.948;2023-02-28T14:06:49;5.03;;;3.40;;
49942;SDS011;36011;53.362;58.948;2023-02-28T14:10:05;5.95;;;4.03;;
49942;SDS011;36011;53.362;58.948;2023-02-28T14:13:13;4.95;;;3.17;;
49942;SDS011;36011;53.362;58.948;2023-02-28T14:16:45;5.00;;;3.10;;
49942;SDS011;36011;53.362;58.948;2023-02-28T14:19:53;5.43;;;3.00;;
49942;SDS011;36011;53.362;58.948;2023-02-28T14:23:18;4.82;;;3.42;;
49942;SDS011;36011;53.362;58.948;2023-02-28T14:32:54;4.13;;;3.22;;
49942;SDS011;36011;53.362;58.948;2023-02-28T14:39:41;3.35;;;2.75;;
49942;SDS011;36011;53.362;58.948;2023-02-28T14:42:48;6.53;;;3.92;;
49942;SDS011;36011;53.362;58.948;2023-02-28T14:46:00;6.85;;;4.18;;
49942;SDS011;36011;53.362;58.948;2023-02-28T14:49:06;5.20;;;3.35;;
49942;SDS011;36011;53.362;58.948;2023-02-28T14:52:20;7.63;;;4.60;;
49942;SDS011;36011;53.362;58.948;2023-02-28T14:55:26;7.55;;;4.35;;
49942;SDS011;36011;53.362;58.948;2023-02-28T14:58:34;7.65;;;4.70;;
49942;SDS011;36011;53.362;58.948;2023-02-28T15:01:40;6.13;;;4.47;;
49942;SDS011;36011;53.362;58.948;2023-02-28T15:04:42;6.35;;;4.30;;
49942;SDS011;36011;53.362;58.948;2023-02-28T15:14:21;6.18;;;4.38;;
49942;SDS011;36011;53.362;58.948;2023-02-28T15:17:26;4.97;;;3.30;;
49942;SDS011;36011;53.362;58.948;2023-02-28T15:20:28;6.97;;;4.82;;
49942;SDS011;36011;53.362;58.948;2023-02-28T15:23:32;7.90;;;5.18;;
49942;SDS011;36011;53.362;58.948;2023-02-28T15:26:39;7.45;;;4.30;;
49942;SDS011;36011;53.362;58.948;2023-02-28T15:29:46;4.90;;;2.58;;
49942;SDS011;36011;53.362;58.948;2023-02-28T15:33:22;7.95;;;5.72;;
49942;SDS011;36011;53.362;58.948;2023-02-28T15:36:28;6.10;;;4.18;;
49942;SDS011;36011;53.362;58.948;2023-02-28T15:39:41;7.75;;;5.00;;
49942;SDS011;36011;53.362;58.948;2023-02-28T15:43:03;8.52;;;5.57;;
49942;SDS011;36011;53.362;58.948;2023-02-28T15:46:17;8.23;;;4.53;;
49942;SDS011;36011;53.362;58.948;2023-02-28T15:49:20;9.73;;;4.97;;
49942;SDS011;36011;53.362;58.948;2023-02-28T15:52:33;7.47;;;5.20;;
49942;SDS011;36011;53.362;58.948;2023-02-28T15:55:41;7.43;;;5.28;;
49942;SDS011;36011;53.362;58.948;2023-02-28T15:58:43;8.25;;;5.32;;
49942;SDS011;36011;53.362;58.948;2023-02-28T16:01:44;7.38;;;5.03;;
49942;SDS011;36011;53.362;58.948;2023-02-28T16:05:24;5.20;;;3.97;;
49942;SDS011;36011;53.362;58.948;2023-02-28T16:08:32;7.88;;;5.43;;
49942;SDS011;36011;53.362;58.948;2023-02-28T16:11:38;7.18;;;3.88;;
49942;SDS011;36011;53.362;58.948;2023-02-28T16:14:44;8.00;;;5.22;;
49942;SDS011;36011;53.362;58.948;2023-02-28T16:17:51;9.25;;;5.93;;
49942;SDS011;36011;53.362;58.948;2023-02-28T16:20:55;7.57;;;4.78;;
49942;SDS011;36011;53.362;58.948;2023-02-28T16:23:59;5.05;;;2.85;;
49942;SDS011;36011;53.362;58.948;2023-02-28T16:27:06;8.95;;;6.18;;
49942;SDS011;36011;53.362;58.948;2023-02-28T16:30:16;6.85;;;4.82;;
49942;SDS011;36011;53.362;58.948;2023-02-28T16:33:23;10.05;;;5.30;;
49942;SDS011;36011;53.362;58.948;2023-02-28T16:36:25;8.93;;;5.65;;
49942;SDS011;36011;53.362;58.948;2023-02-28T16:39:29;9.27;;;5.25;;
49942;SDS011;36011;53.362;58.948;2023-02-28T16:42:31;6.70;;;3.92;;
49942;SDS011;36011;53.362;58.948;2023-02-28T16:45:33;7.28;;;4.75;;
49942;SDS011;36011;53.362;58.948;2023-02-28T16:48:34;9.40;;;5.03;;
49942;SDS011;36011;53.362;58.948;2023-02-28T16:51:38;5.53;;;3.75;;
49942;SDS011;36011;53.362;58.948;2023-02-28T16:54:40;9.98;;;6.10;;
49942;SDS011;36011;53.362;58.948;2023-02-28T16:57:45;8.65;;;5.63;;
49942;SDS011;36011;53.362;58.948;2023-02-28T17:00:52;8.52;;;4.82;;
49942;SDS011;36011;53.362;58.948;2023-02-28T17:03:55;9.68;;;6.07;;
49942;SDS011;36011;53.362;58.948;2023-02-28T17:07:02;10.13;;;5.78;;
49942;SDS011;36011;53.362;58.948;2023-02-28T17:10:14;7.10;;;4.20;;
49942;SDS011;36011;53.362;58.948;2023-02-28T17:13:18;9.27;;;4.90;;
49942;SDS011;36011;53.362;58.948;2023-02-28T17:22:26;6.70;;;3.55;;
49942;SDS011;36011;53.362;58.948;2023-02-28T17:25:27;5.93;;;4.32;;
49942;SDS011;36011;53.362;58.948;2023-02-28T17:28:31;7.85;;;4.70;;
49942;SDS011;36011;53.362;58.948;2023-02-28T17:31:35;8.32;;;5.15;;
49942;SDS011;36011;53.362;58.948;2023-02-28T17:34:43;8.18;;;4.85;;
49942;SDS011;36011;53.362;58.948;2023-02-28T17:37:48;9.13;;;5.80;;
49942;SDS011;36011;53.362;58.948;2023-02-28T17:40:52;8.63;;;5.90;;
49942;SDS011;36011;53.362;58.948;2023-02-28T17:43:59;10.90;;;6.22;;
49942;SDS011;36011;53.362;58.948;2023-02-28T17:47:06;9.68;;;5.57;;
49942;SDS011;36011;53.362;58.948;2023-02-28T17:50:11;10.00;;;5.53;;
49942;SDS011;36011;53.362;58.948;2023-02-28T17:53:16;9.73;;;5.22;;
49942;SDS011;36011;53.362;58.948;2023-02-28T17:56:20;10.82;;;5.63;;
49942;SDS011;36011;53.362;58.948;2023-02-28T17:59:28;9.55;;;5.70;;
49942;SDS011;36011;53.362;58.948;2023-02-28T18:02:33;9.48;;;5.80;;
49942;SDS011;36011;53.362;58.948;2023-02-28T18:05:40;8.80;;;5.50;;
49942;SDS011;36011;53.362;58.948;2023-02-28T18:08:44;8.77;;;5.18;;
49942;SDS011;36011;53.362;58.948;2023-02-28T18:11:51;7.43;;;5.10;;
49942;SDS011;36011;53.362;58.948;2023-02-28T18:14:54;7.75;;;5.13;;
49942;SDS011;36011;53.362;58.948;2023-02-28T18:17:57;9.18;;;5.70;;
49942;SDS011;36011;53.362;58.948;2023-02-28T18:21:01;8.18;;;4.30;;
49942;SDS011;36011;53.362;58.948;2023-02-28T18:24:08;8.50;;;5.68;;
49942;SDS011;36011;53.362;58.948;2023-02-28T18:27:12;5.15;;;2.92;;
49942;SDS011;36011;53.362;58.948;2023-02-28T18:30:19;9.65;;;4.75;;
49942;SDS011;36011;53.362;58.948;2023-02-28T18:33:24;6.72;;;4.43;;
49942;SDS011;36011;53.362;58.948;2023-02-28T18:36:31;8.00;;;4.82;;
49942;SDS011;36011;53.362;58.948;2023-02-28T18:39:34;6.90;;;5.15;;
49942;SDS011;36011;53.362;58.948;2023-02-28T18:42:35;7.18;;;5.20;;
49942;SDS011;36011;53.362;58.948;2023-02-28T18:45:41;8.75;;;5.35;;
49942;SDS011;36011;53.362;58.948;2023-02-28T18:48:42;6.63;;;4.22;;
49942;SDS011;36011;53.362;58.948;2023-02-28T18:51:47;7.93;;;5.05;;
49942;SDS011;36011;53.362;58.948;2023-02-28T18:54:48;6.15;;;3.92;;
49942;SDS011;36011;53.362;58.948;2023-02-28T18:57:53;8.32;;;5.20;;
49942;SDS011;36011;53.362;58.948;2023-02-28T19:00:56;6.75;;;3.92;;
49942;SDS011;36011;53.362;58.948;2023-02-28T19:04:01;5.07;;;3.25;;
49942;SDS011;36011;53.362;58.948;2023-02-28T19:07:06;6.70;;;4.47;;
49942;SDS011;36011;53.362;58.948;2023-02-28T19:10:07;6.57;;;3.25;;
49942;SDS011;36011;53.362;58.948;2023-02-28T19:13:09;6.22;;;4.30;;
49942;SDS011;36011;53.362;58.948;2023-02-28T19:16:15;7.05;;;4.78;;
49942;SDS011;36011;53.362;58.948;2023-02-28T19:22:24;11.45;;;6.20;;
49942;SDS011;36011;53.362;58.948;2023-02-28T19:25:26;8.70;;;4.72;;
49942;SDS011;36011;53.362;58.948;2023-02-28T19:28:30;6.80;;;4.22;;
49942;SDS011;36011;53.362;58.948;2023-02-28T19:31:34;7.15;;;4.57;;
49942;SDS011;36011;53.362;58.948;2023-02-28T19:34:39;4.35;;;2.97;;
49942;SDS011;36011;53.362;58.948;2023-02-28T19:37:44;7.90;;;4.80;;
49942;SDS011;36011;53.362;58.948;2023-02-28T19:40:49;4.07;;;2.53;;
49942;SDS011;36011;53.362;58.948;2023-02-28T19:44:02;7.38;;;4.43;;
49942;SDS011;36011;53.362;58.948;2023-02-28T19:47:07;8.13;;;5.18;;
49942;SDS011;36011;53.362;58.948;2023-02-28T19:50:12;6.55;;;5.03;;
49942;SDS011;36011;53.362;58.948;2023-02-28T19:53:17;7.20;;;4.70;;
49942;SDS011;36011;53.362;58.948;2023-02-28T19:59:24;5.25;;;3.33;;
49942;SDS011;36011;53.362;58.948;2023-02-28T20:02:29;9.45;;;5.82;;
49942;SDS011;36011;53.362;58.948;2023-02-28T20:05:34;8.77;;;5.07;;
49942;SDS011;36011;53.362;58.948;2023-02-28T20:08:39;5.88;;;3.88;;
49942;SDS011;36011;53.362;58.948;2023-02-28T20:11:45;5.47;;;3.63;;
49942;SDS011;36011;53.362;58.948;2023-02-28T20:14:49;6.80;;;4.72;;
49942;SDS011;36011;53.362;58.948;2023-02-28T20:17:54;9.48;;;6.20;;
49942;SDS011;36011;53.362;58.948;2023-02-28T20:21:00;6.07;;;3.63;;
49942;SDS011;36011;53.362;58.948;2023-02-28T20:27:08;6.97;;;4.25;;
49942;SDS011;36011;53.362;58.948;2023-02-28T20:33:17;3.47;;;2.95;;
49942;SDS011;36011;53.362;58.948;2023-02-28T20:36:22;4.28;;;3.00;;
49942;SDS011;36011;53.362;58.948;2023-02-28T20:39:27;3.58;;;2.97;;
49942;SDS011;36011;53.362;58.948;2023-02-28T20:45:35;6.20;;;4.20;;
49942;SDS011;36011;53.362;58.948;2023-02-28T20:51:43;5.20;;;4.18;;
49942;SDS011;36011;53.362;58.948;2023-02-28T20:54:48;6.30;;;3.63;;
49942;SDS011;36011;53.362;58.948;2023-02-28T20:57:53;6.35;;;3.97;;
49942;SDS011;36011;53.362;58.948;2023-02-28T21:01:02;7.90;;;5.22;;
49942;SDS011;36011;53.362;58.948;2023-02-28T21:04:16;5.90;;;4.25;;
49942;SDS011;36011;53.362;58.948;2023-02-28T21:07:26;7.70;;;4.30;;
49942;SDS011;36011;53.362;58.948;2023-02-28T21:10:31;5.85;;;4.47;;
49942;SDS011;36011;53.362;58.948;2023-02-28T21:13:37;6.72;;;4.97;;
49942;SDS011;36011;53.362;58.948;2023-02-28T21:16:43;5.20;;;3.83;;
49942;SDS011;36011;53.362;58.948;2023-02-28T21:19:48;6.68;;;4.60;;
49942;SDS011;36011;53.362;58.948;2023-02-28T21:22:53;4.85;;;3.88;;
49942;SDS011;36011;53.362;58.948;2023-02-28T21:29:05;6.25;;;4.30;;
49942;SDS011;36011;53.362;58.948;2023-02-28T21:32:10;6.55;;;4.13;;
49942;SDS011;36011;53.362;58.948;2023-02-28T21:35:16;6.05;;;4.03;;
49942;SDS011;36011;53.362;58.948;2023-02-28T21:38:21;5.55;;;3.85;;
49942;SDS011;36011;53.362;58.948;2023-02-28T21:41:27;5.97;;;3.42;;
49942;SDS011;36011;53.362;58.948;2023-02-28T21:44:32;4.28;;;3.55;;